Humidity-temperature Sensor

Selected Measurement Type: Air Temperature

 
Air Temperature [°C]     6 entries per hour
Showing data from 8/8/2016 (00:00:00 Z) to 8/1/2016 (00:01:00 Z)
Previous Next [ Day | 3-Days | 7-Days ]
First Last
Prev [ Day | 3-Days | 7-Days ] Next
First Last

Start Time:     :
End Time:     :     
Time (in GMT) :00 :50 :40 :30 :20 :10
Previous Next [ Day | 3-Days | 7-Days ]
First Last
Prev [ Day | 3-Days | 7-Days ] Next
First Last


123 => good data
MM => data is determined as missing
-- => data not received/configured
Back to Top Back to Top
8/8/2016 00:00 to 23:10 19.90 19.92 19.94 19.97 19.98 20.01
8/7/2016 23:00 to 22:10 20.03 20.06 20.07 20.08 20.10 20.11
8/7/2016 22:00 to 21:10 20.14 20.16 20.17 20.18 20.19 20.18
8/7/2016 21:00 to 20:10 20.18 20.20 20.20 20.19 20.19 20.19
8/7/2016 20:00 to 19:10 20.20 20.17 20.19 20.19 20.16 20.09
8/7/2016 19:00 to 18:10 19.99 19.92 19.84 19.75 19.98 19.99
8/7/2016 18:00 to 17:10 19.99 20.00 19.97 19.96 19.95 19.99
8/7/2016 17:00 to 16:10 20.09 20.15 20.23 20.23 20.16 20.18
8/7/2016 16:00 to 15:10 20.29 20.29 20.24 20.19 19.99 19.99
8/7/2016 15:00 to 14:10 19.89 19.89 19.79 19.69 19.69 20.06
8/7/2016 14:00 to 13:10 20.03 20.07 19.98 19.92 19.88 19.84
8/7/2016 13:00 to 12:10 19.81 19.77 19.78 19.75 19.75 19.73
8/7/2016 12:00 to 11:10 19.72 19.70 19.68 19.68 19.69 19.71
8/7/2016 11:00 to 10:10 19.72 19.65 19.64 19.70 19.69 19.71
8/7/2016 10:00 to 9:10 19.71 19.74 19.75 19.77 19.79 19.80
8/7/2016 09:00 to 8:10 19.80 19.81 19.84 19.87 19.90 19.92
8/7/2016 08:00 to 7:10 19.96 19.99 20.02 20.07 20.09 20.11
8/7/2016 07:00 to 6:10 20.14 20.16 20.19 20.18 20.18 20.19
8/7/2016 06:00 to 5:10 20.20 20.22 20.23 20.23 20.23 20.23
8/7/2016 05:00 to 4:10 20.21 20.19 20.18 20.20 20.20 20.21
8/7/2016 04:00 to 3:10 20.22 20.24 20.27 20.27 20.29 20.28
8/7/2016 03:00 to 2:10 20.28 20.26 20.24 20.23 20.23 20.24
8/7/2016 02:00 to 1:10 20.24 20.25 20.26 20.25 20.28 20.28
8/7/2016 01:00 to 0:10 20.29 20.30 20.31 20.32 20.36 20.41
8/7/2016 00:00 to 23:10 20.44 20.47 20.47 20.47 20.50 20.53
8/6/2016 23:00 to 22:10 20.51 20.53 20.53 20.52 20.55 20.54
8/6/2016 22:00 to 21:10 20.56 20.50 20.52 20.36 20.45 20.63
8/6/2016 21:00 to 20:10 20.65 20.61 20.61 20.61 20.63 20.58
8/6/2016 20:00 to 19:10 20.62 20.70 20.66 20.68 20.71 20.70
8/6/2016 19:00 to 18:10 20.75 20.70 20.64 20.65 20.65 20.67
8/6/2016 18:00 to 17:10 20.69 20.67 20.65 20.71 20.75 20.72
8/6/2016 17:00 to 16:10 20.71 20.66 20.72 20.65 20.73 20.67
8/6/2016 16:00 to 15:10 20.63 20.59 20.60 20.59 20.61 20.59
8/6/2016 15:00 to 14:10 20.58 20.61 20.61 20.62 20.57 20.61
8/6/2016 14:00 to 13:10 20.59 20.59 20.57 20.57 20.56 20.58
8/6/2016 13:00 to 12:10 20.63 20.65 20.63 20.58 20.62 20.59
8/6/2016 12:00 to 11:10 20.56 20.52 20.60 20.58 20.52 20.55
8/6/2016 11:00 to 10:10 -- -- -- -- -- --
8/6/2016 10:00 to 9:10 20.66 20.66 20.70 20.62 20.62 20.62
8/6/2016 09:00 to 8:10 20.62 20.76 20.73 20.75 20.74 20.77
8/6/2016 08:00 to 7:10 20.87 20.83 20.84 20.88 20.87 20.89
8/6/2016 07:00 to 6:10 20.87 20.98 20.93 20.92 20.96 20.94
8/6/2016 06:00 to 5:10 -- -- -- -- -- --
8/6/2016 05:00 to 4:10 20.98 21.10 21.09 21.09 21.06 21.26
8/6/2016 04:00 to 3:10 21.20 21.16 21.18 21.21 21.20 21.17
8/6/2016 03:00 to 2:10 21.28 21.25 21.37 21.21 21.43 21.32
8/6/2016 02:00 to 1:10 21.36 21.40 21.36 21.42 21.29 21.33
8/6/2016 01:00 to 0:10 21.32 21.38 21.38 21.32 21.43 21.39
8/6/2016 00:00 to 23:10 21.42 21.43 21.40 21.49 21.40 21.36
8/5/2016 23:00 to 22:10 21.39 21.33 21.41 21.36 21.34 21.41
8/5/2016 22:00 to 21:10 21.45 21.47 21.51 21.43 21.49 21.46
8/5/2016 21:00 to 20:10 21.51 21.52 21.55 21.49 21.50 21.38
8/5/2016 20:00 to 19:10 21.41 21.53 21.45 21.48 21.61 21.58
8/5/2016 19:00 to 18:10 21.52 21.48 21.27 21.16 20.82 20.64
8/5/2016 18:00 to 17:10 20.94 21.09 21.21 21.53 21.46 21.56
8/5/2016 17:00 to 16:10 21.45 21.43 21.30 21.62 21.65 21.40
8/5/2016 16:00 to 15:10 21.30 21.22 21.20 21.36 21.03 20.69
8/5/2016 15:00 to 14:10 20.63 21.04 21.63 21.17 20.90 20.82
8/5/2016 14:00 to 13:10 20.78 21.23 21.52 21.70 21.59 21.46
8/5/2016 13:00 to 12:10 21.41 21.12 21.28 21.46 21.65 21.68
8/5/2016 12:00 to 11:10 21.54 21.48 21.69 21.60 21.70 21.78
8/5/2016 11:00 to 10:10 21.70 21.65 21.67 21.50 21.61 21.68
8/5/2016 10:00 to 9:10 21.64 21.77 21.66 21.73 21.60 21.62
8/5/2016 09:00 to 8:10 21.65 21.57 21.51 21.61 21.50 21.65
8/5/2016 08:00 to 7:10 21.63 21.63 21.59 21.67 21.70 21.72
8/5/2016 07:00 to 6:10 21.72 21.78 21.82 21.77 21.87 21.87
8/5/2016 06:00 to 5:10 21.81 21.95 21.80 21.90 21.98 22.01
8/5/2016 05:00 to 4:10 21.96 21.94 21.95 21.90 21.97 21.91
8/5/2016 04:00 to 3:10 22.00 21.91 21.99 21.96 21.88 21.92
8/5/2016 03:00 to 2:10 22.01 21.97 22.16 22.09 21.96 22.00
8/5/2016 02:00 to 1:10 22.03 22.02 21.98 22.05 22.07 22.15
8/5/2016 01:00 to 0:10 22.06 22.15 22.15 22.30 22.19 22.23
8/5/2016 00:00 to 23:10 22.19 22.23 22.25 22.31 22.30 22.35
8/4/2016 23:00 to 22:10 22.37 22.34 22.33 22.35 22.31 22.28
8/4/2016 22:00 to 21:10 22.39 22.34 22.29 22.30 22.26 22.27
8/4/2016 21:00 to 20:10 22.43 22.27 22.21 22.21 22.21 22.23
8/4/2016 20:00 to 19:10 22.10 22.25 22.21 22.25 22.22 22.23
8/4/2016 19:00 to 18:10 22.26 22.24 22.17 22.16 22.26 22.23
8/4/2016 18:00 to 17:10 22.21 22.20 22.24 22.34 22.11 22.19
8/4/2016 17:00 to 16:10 22.19 22.19 22.16 22.14 22.21 22.16
8/4/2016 16:00 to 15:10 22.07 22.22 22.44 22.30 22.19 22.30
8/4/2016 15:00 to 14:10 22.19 22.23 22.32 22.14 22.24 22.12
8/4/2016 14:00 to 13:10 22.13 21.94 22.01 22.04 21.96 22.06
8/4/2016 13:00 to 12:10 22.13 21.92 21.94 21.99 21.97 21.83
8/4/2016 12:00 to 11:10 21.91 21.88 21.87 21.83 21.97 21.94
8/4/2016 11:00 to 10:10 21.87 21.90 22.07 21.89 21.85 21.92
8/4/2016 10:00 to 9:10 21.94 21.92 21.87 21.84 21.84 21.89
8/4/2016 09:00 to 8:10 21.90 22.00 21.97 21.93 21.84 22.06
8/4/2016 08:00 to 7:10 21.92 21.96 21.97 21.92 22.05 22.01
8/4/2016 07:00 to 6:10 22.02 22.10 21.96 21.96 22.10 22.13
8/4/2016 06:00 to 5:10 22.03 22.09 22.19 22.09 22.18 22.11
8/4/2016 05:00 to 4:10 22.18 22.13 22.24 22.25 22.28 22.19
8/4/2016 04:00 to 3:10 22.25 22.29 22.21 22.30 22.30 22.26
8/4/2016 03:00 to 2:10 22.26 22.43 22.25 22.24 22.22 22.25
8/4/2016 02:00 to 1:10 22.34 22.32 22.24 22.27 22.26 22.24
8/4/2016 01:00 to 0:10 22.23 22.27 22.35 22.30 22.21 22.29
8/4/2016 00:00 to 23:10 22.33 22.25 22.36 22.25 22.31 22.44
8/3/2016 23:00 to 22:10 22.38 22.42 22.35 22.29 22.30 22.22
8/3/2016 22:00 to 21:10 22.21 22.32 22.26 22.25 22.30 22.25
8/3/2016 21:00 to 20:10 22.33 22.30 22.20 22.33 22.25 22.40
8/3/2016 20:00 to 19:10 22.22 22.25 22.27 22.34 22.38 22.32
8/3/2016 19:00 to 18:10 22.25 22.28 22.28 22.29 22.21 22.27
8/3/2016 18:00 to 17:10 22.33 22.20 22.22 22.21 22.15 22.23
8/3/2016 17:00 to 16:10 22.27 22.20 22.20 22.19 22.23 22.22
8/3/2016 16:00 to 15:10 22.24 22.12 22.17 22.17 22.26 22.25
8/3/2016 15:00 to 14:10 22.33 22.22 22.19 22.25 22.20 22.23
8/3/2016 14:00 to 13:10 22.25 22.20 22.08 22.13 22.12 22.08
8/3/2016 13:00 to 12:10 21.93 21.79 21.74 21.69 21.66 21.68
8/3/2016 12:00 to 11:10 21.57 21.63 21.63 21.64 21.73 21.60
8/3/2016 11:00 to 10:10 -- -- -- -- -- --
8/3/2016 10:00 to 9:10 21.59 21.40 21.49 21.60 21.64 21.64
8/3/2016 09:00 to 8:10 21.61 21.62 21.65 21.71 21.65 21.65
8/3/2016 08:00 to 7:10 21.73 21.81 21.72 21.73 21.78 21.80
8/3/2016 07:00 to 6:10 21.77 21.76 21.70 21.87 21.83 21.81
8/3/2016 06:00 to 5:10 -- -- -- -- -- --
8/3/2016 05:00 to 4:10 21.90 21.97 21.88 21.88 21.91 21.94
8/3/2016 04:00 to 3:10 21.98 21.95 21.99 21.96 21.92 21.97
8/3/2016 03:00 to 2:10 22.01 21.96 22.03 21.99 21.98 22.06
8/3/2016 02:00 to 1:10 22.05 22.07 22.01 22.09 21.99 22.05
8/3/2016 01:00 to 0:10 22.01 22.04 22.03 22.04 21.99 21.99
8/3/2016 00:00 to 23:10 21.98 22.01 21.96 21.83 21.78 21.68
8/2/2016 23:00 to 22:10 21.54 21.52 21.58 21.63 21.53 21.56
8/2/2016 22:00 to 21:10 21.62 21.51 21.50 21.48 21.44 21.44
8/2/2016 21:00 to 20:10 21.46 21.52 21.47 21.44 21.40 21.41
8/2/2016 20:00 to 19:10 21.40 21.41 21.35 21.36 21.29 21.31
8/2/2016 19:00 to 18:10 21.31 21.30 21.25 21.29 21.21 21.21
8/2/2016 18:00 to 17:10 21.17 21.21 21.18 21.14 21.11 21.20
8/2/2016 17:00 to 16:10 21.19 21.11 21.17 21.15 21.17 21.20
8/2/2016 16:00 to 15:10 21.14 21.16 21.13 21.12 21.11 21.09
8/2/2016 15:00 to 14:10 21.05 21.10 21.04 21.01 21.05 21.03
8/2/2016 14:00 to 13:10 20.98 21.00 20.95 20.93 20.84 20.82
8/2/2016 13:00 to 12:10 20.93 20.87 20.75 20.75 20.72 20.72
8/2/2016 12:00 to 11:10 20.72 20.72 20.68 20.69 20.70 20.72
8/2/2016 11:00 to 10:10 20.74 20.78 20.74 20.76 20.72 20.76
8/2/2016 10:00 to 9:10 20.75 20.74 20.73 20.74 20.73 20.68
8/2/2016 09:00 to 8:10 20.78 20.76 20.75 20.80 20.83 20.84
8/2/2016 08:00 to 7:10 20.82 20.82 20.83 20.84 20.92 20.87
8/2/2016 07:00 to 6:10 20.90 20.86 20.90 20.89 20.94 20.95
8/2/2016 06:00 to 5:10 20.90 20.98 21.02 20.99 21.03 21.04
8/2/2016 05:00 to 4:10 21.04 21.04 21.02 21.10 21.12 21.04
8/2/2016 04:00 to 3:10 21.04 21.08 21.08 21.13 21.14 21.09
8/2/2016 03:00 to 2:10 21.09 21.12 21.17 21.13 21.17 21.10
8/2/2016 02:00 to 1:10 21.14 21.20 21.27 21.21 21.17 21.17
8/2/2016 01:00 to 0:10 21.23 21.21 21.21 21.18 21.17 21.24
8/2/2016 00:00 to 23:10 21.24 21.13 21.15 21.20 21.14 21.19
8/1/2016 23:00 to 22:10 21.13 21.14 21.17 21.19 21.11 21.08
8/1/2016 22:00 to 21:10 21.06 21.05 21.05 21.06 21.00 21.02
8/1/2016 21:00 to 20:10 20.99 20.96 21.02 20.91 20.90 20.84
8/1/2016 20:00 to 19:10 20.82 20.86 20.92 20.83 20.86 20.85
8/1/2016 19:00 to 18:10 20.86 20.86 20.77 20.77 20.76 20.76
8/1/2016 18:00 to 17:10 20.77 20.71 20.71 20.57 20.58 20.62
8/1/2016 17:00 to 16:10 20.55 20.52 20.51 20.56 20.55 20.59
8/1/2016 16:00 to 15:10 20.63 20.63 20.65 20.65 20.65 20.63
8/1/2016 15:00 to 14:10 20.64 20.66 20.65 20.59 20.50 20.47
8/1/2016 14:00 to 13:10 20.42 20.39 20.37 20.34 20.34 20.33
8/1/2016 13:00 to 12:10 20.31 20.28 20.26 20.23 20.27 20.26
8/1/2016 12:00 to 11:10 20.26 20.16 20.15 20.17 20.21 20.25
8/1/2016 11:00 to 10:10 20.29 20.30 20.29 20.30 20.27 20.08
8/1/2016 10:00 to 9:10 20.13 20.13 20.08 20.14 20.16 20.09
8/1/2016 09:00 to 8:10 20.16 20.15 20.15 20.13 20.14 20.13
8/1/2016 08:00 to 7:10 20.15 20.15 20.15 20.17 20.16 20.18
8/1/2016 07:00 to 6:10 20.18 20.18 20.21 20.17 20.18 20.22
8/1/2016 06:00 to 5:10 20.21 20.20 20.19 20.19 20.20 20.22
8/1/2016 05:00 to 4:10 20.23 20.24 20.24 20.24 20.23 20.25
8/1/2016 04:00 to 3:10 20.27 20.29 20.29 20.30 20.29 20.28
8/1/2016 03:00 to 2:10 20.31 20.29 20.24 20.24 20.23 20.26
8/1/2016 02:00 to 1:10 20.23 20.27 20.23 20.27 20.31 20.30
8/1/2016 01:00 to 0:10 20.31 20.35 20.34 20.36 20.38 20.45